Time;durP1;ratioP1;P1;durP2;ratioP2;P2;SDS_P1;SDS_P2;PMS_P1;PMS_P2;Temp;Humidity;BMP_temperature;BMP_pressure;BME280_temperature;BME280_humidity;BME280_pressure;Samples;Min_cycle;Max_cycle;Signal;HPM_P1;HPM_P2
2023/04/28 00:01:04;;;;;;;3.60;1.75;;;;;;;6.06;83.60;100891.00;5176544;28;20124;-76
2023/04/28 00:03:35;;;;;;;4.88;1.88;;;;;;;6.08;83.50;100884.06;5179445;28;20387;-75
2023/04/28 00:06:06;;;;;;;4.72;2.13;;;;;;;6.13;83.38;100886.59;5178082;28;20562;-76
2023/04/28 00:08:36;;;;;;;6.60;2.05;;;;;;;6.02;82.76;100883.28;5178062;28;20057;-76
2023/04/28 00:11:09;;;;;;;5.28;2.00;;;;;;;6.00;84.84;100879.84;5178287;28;20119;-76
2023/04/28 00:13:40;;;;;;;4.57;1.90;;;;;;;6.05;84.09;100875.47;5178604;28;20026;-76
2023/04/28 00:16:10;;;;;;;4.18;2.20;;;;;;;6.04;83.83;100872.00;5177864;28;20026;-75
2023/04/28 00:18:40;;;;;;;4.90;2.08;;;;;;;6.06;84.26;100864.22;5164593;28;20950;-76
2023/04/28 00:21:11;;;;;;;4.43;1.83;;;;;;;5.94;85.38;100854.00;5176405;28;20124;-76
2023/04/28 00:23:41;;;;;;;6.95;2.10;;;;;;;6.02;85.27;100857.34;5178555;28;20399;-76
2023/04/28 00:26:11;;;;;;;4.70;2.40;;;;;;;6.06;85.15;100856.44;5177562;28;20036;-77
2023/04/28 00:28:41;;;;;;;5.50;2.60;;;;;;;6.04;85.33;100855.56;5176590;28;20053;-76
2023/04/28 00:31:13;;;;;;;6.60;2.30;;;;;;;6.03;85.97;100853.88;5178358;28;20022;-75
2023/04/28 00:33:43;;;;;;;5.55;2.47;;;;;;;6.09;85.79;100844.28;5178696;28;20327;-74
2023/04/28 00:36:14;;;;;;;5.88;2.40;;;;;;;6.09;85.91;100840.84;5178010;28;20030;-75
2023/04/28 00:38:44;;;;;;;6.18;2.33;;;;;;;6.08;84.78;100836.53;5175937;28;20077;-76
2023/04/28 00:41:15;;;;;;;5.30;2.17;;;;;;;6.14;84.12;100826.94;5177544;28;20072;-76
2023/04/28 00:43:47;;;;;;;4.60;2.15;;;;;;;6.28;83.34;100834.50;5178160;28;20025;-75
2023/04/28 00:46:23;;;;;;;7.60;2.83;;;;;;;6.32;84.43;100825.78;5177940;28;20025;-75
2023/04/28 00:48:54;;;;;;;6.53;2.28;;;;;;;6.36;82.81;100812.75;5176679;28;20053;-73
2023/04/28 00:51:26;;;;;;;5.07;2.40;;;;;;;6.49;81.25;100813.41;5177672;28;20491;-73
2023/04/28 00:53:56;;;;;;;6.82;2.05;;;;;;;6.71;80.27;100814.78;5177365;28;20037;-75
2023/04/28 00:56:29;;;;;;;3.25;1.92;;;;;;;6.93;78.93;100817.00;5177966;28;20032;-73
2023/04/28 00:59:00;;;;;;;4.45;2.00;;;;;;;6.95;78.79;100822.19;5176797;28;20081;-76
2023/04/28 01:01:31;;;;;;;4.18;2.15;;;;;;;6.84;79.78;100816.31;5177230;28;20483;-76
2023/04/28 01:04:01;;;;;;;5.93;2.25;;;;;;;6.85;78.65;100810.22;5177164;28;20116;-77
2023/04/28 01:06:32;;;;;;;4.85;1.92;;;;;;;6.96;78.67;100810.91;5177257;28;20029;-76
2023/04/28 01:09:04;;;;;;;6.00;2.72;;;;;;;6.99;79.99;100816.06;5176318;28;20037;-76
2023/04/28 01:11:35;;;;;;;7.22;2.55;;;;;;;6.90;80.12;100816.22;5176119;28;20100;-77
2023/04/28 01:14:06;;;;;;;9.43;2.42;;;;;;;7.02;81.12;100810.81;5177281;28;20088;-77
2023/04/28 01:16:37;;;;;;;8.45;2.58;;;;;;;6.94;80.62;100808.34;5177060;28;20030;-75
2023/04/28 01:19:15;;;;;;;5.35;2.28;;;;;;;7.08;82.05;100805.53;5176105;28;20671;-72
2023/04/28 01:21:46;;;;;;;6.00;2.33;;;;;;;7.05;81.94;100808.16;5177114;28;20116;-76
2023/04/28 01:24:16;;;;;;;6.15;2.38;;;;;;;6.97;81.59;100807.44;5176490;28;20463;-76
2023/04/28 01:26:47;;;;;;;4.88;2.45;;;;;;;6.93;83.06;100805.78;5177242;28;20038;-75
2023/04/28 01:29:17;;;;;;;5.13;2.25;;;;;;;6.83;82.87;100796.41;5174105;28;20045;-76
2023/04/28 01:31:47;;;;;;;10.00;2.55;;;;;;;6.67;83.81;100789.75;5177456;28;20515;-74
2023/04/28 01:34:18;;;;;;;4.43;2.00;;;;;;;6.77;80.48;100778.34;5177659;28;20026;-76
2023/04/28 01:36:48;;;;;;;5.10;2.00;;;;;;;6.92;78.56;100794.50;5176917;28;20026;-72
2023/04/28 01:39:18;;;;;;;6.35;1.98;;;;;;;7.00;76.50;100778.78;5174377;28;20419;-76
2023/04/28 01:41:48;;;;;;;5.38;2.08;;;;;;;7.22;75.72;100777.50;5176868;28;20026;-73
2023/04/28 01:44:19;;;;;;;6.80;2.17;;;;;;;7.37;73.33;100773.72;5177037;28;20037;-77
2023/04/28 01:46:49;;;;;;;8.75;2.60;;;;;;;7.43;73.12;100767.56;5177311;28;20112;-75
2023/04/28 01:49:19;;;;;;;4.53;2.17;;;;;;;7.46;71.60;100767.50;5176467;28;20380;-76
2023/04/28 01:51:50;;;;;;;5.57;2.00;;;;;;;7.60;70.76;100766.34;5176576;28;20026;-77
2023/04/28 01:54:20;;;;;;;3.88;1.92;;;;;;;7.64;71.78;100762.78;5176809;28;20036;-76
2023/04/28 01:56:50;;;;;;;4.28;1.65;;;;;;;7.66;70.97;100773.19;5176469;28;20372;-74
2023/04/28 01:59:21;;;;;;;4.07;1.85;;;;;;;7.68;71.17;100769.63;5174424;28;20026;-76
2023/04/28 02:01:51;;;;;;;5.18;1.95;;;;;;;7.74;71.89;100761.69;5174806;28;20304;-75
2023/04/28 02:04:21;;;;;;;5.88;1.80;;;;;;;7.77;72.92;100758.19;5174726;28;20232;-76
2023/04/28 02:06:51;;;;;;;6.15;2.05;;;;;;;7.65;72.64;100751.50;5175322;28;20034;-76
2023/04/28 02:09:22;;;;;;;4.40;1.95;;;;;;;7.63;72.96;100749.81;5175254;28;20284;-76
2023/04/28 02:11:52;;;;;;;6.47;1.90;;;;;;;7.68;72.96;100748.00;5176360;28;20018;-77
2023/04/28 02:14:22;;;;;;;4.22;1.73;;;;;;;7.58;72.69;100741.25;5176142;28;20030;-77
2023/04/28 02:16:53;;;;;;;6.13;2.50;;;;;;;7.67;71.54;100734.09;5174069;28;20033;-77
2023/04/28 02:19:23;;;;;;;7.50;2.08;;;;;;;7.69;70.31;100734.94;5173669;28;20033;-76
2023/04/28 02:21:53;;;;;;;8.73;3.38;;;;;;;7.83;69.60;100735.50;5176235;28;20079;-76
2023/04/28 02:24:23;;;;;;;4.47;1.80;;;;;;;7.93;68.51;100730.94;5176116;28;20038;-76
2023/04/28 02:26:54;;;;;;;3.33;1.98;;;;;;;7.96;68.56;100733.47;5175528;28;20393;-77
2023/04/28 02:29:25;;;;;;;5.68;2.08;;;;;;;7.94;68.51;100725.72;5174880;28;20045;-76
2023/04/28 02:31:55;;;;;;;7.72;1.77;;;;;;;7.96;67.97;100729.13;5176588;28;20463;-76
2023/04/28 02:34:26;;;;;;;3.95;1.83;;;;;;;8.00;68.51;100722.09;5176528;28;20065;-76
2023/04/28 02:36:56;;;;;;;7.78;2.00;;;;;;;8.00;67.81;100717.75;5175447;28;20121;-76
2023/04/28 02:39:28;;;;;;;4.57;1.88;;;;;;;8.00;68.22;100714.28;5175084;28;20109;-76
2023/04/28 02:41:58;;;;;;;3.13;1.80;;;;;;;8.00;68.07;100702.16;5175981;28;20123;-77
2023/04/28 02:44:29;;;;;;;4.20;2.00;;;;;;;8.00;67.93;100704.75;5175721;28;20034;-76
2023/04/28 02:47:00;;;;;;;4.93;1.90;;;;;;;8.06;67.51;100691.56;5175160;28;20063;-73
2023/04/28 02:49:30;;;;;;;5.88;2.10;;;;;;;8.07;67.21;100690.69;5174957;28;20426;-74
2023/04/28 02:52:01;;;;;;;3.25;1.63;;;;;;;8.12;67.05;100686.25;5175414;28;20069;-74
2023/04/28 02:54:33;;;;;;;5.35;1.80;;;;;;;8.11;67.12;100679.34;5175604;28;20241;-75
2023/04/28 02:57:03;;;;;;;4.90;2.13;;;;;;;8.21;66.94;100682.59;5175496;28;20109;-76
2023/04/28 02:59:34;;;;;;;7.72;2.10;;;;;;;8.18;67.04;100680.91;5172879;28;20079;-76
2023/04/28 03:02:04;;;;;;;4.85;2.05;;;;;;;8.15;66.73;100669.69;5175570;28;20029;-76
2023/04/28 03:04:35;;;;;;;6.80;1.70;;;;;;;8.21;66.71;100677.41;5175443;28;20022;-75
2023/04/28 03:07:05;;;;;;;3.83;1.73;;;;;;;8.14;66.76;100666.25;5173964;28;20397;-74
2023/04/28 03:09:35;;;;;;;4.72;1.90;;;;;;;8.21;66.49;100662.63;5175828;28;20022;-77
2023/04/28 03:12:06;;;;;;;4.25;1.80;;;;;;;8.19;66.53;100651.38;5175323;28;20083;-76
2023/04/28 03:14:36;;;;;;;4.70;1.88;;;;;;;8.28;66.23;100653.78;5174607;28;20403;-76
2023/04/28 03:17:06;;;;;;;6.53;1.80;;;;;;;8.28;65.25;100656.38;5173582;28;20797;-75
2023/04/28 03:19:37;;;;;;;6.35;2.28;;;;;;;8.36;65.91;100653.59;5173385;28;20462;-76
2023/04/28 03:22:07;;;;;;;6.38;1.80;;;;;;;8.35;65.53;100652.72;5175831;28;20104;-76
2023/04/28 03:24:37;;;;;;;8.07;1.70;;;;;;;8.34;66.18;100645.81;5175307;28;20070;-77
2023/04/28 03:27:07;;;;;;;4.22;1.80;;;;;;;8.32;66.42;100644.13;5171850;28;20044;-77
2023/04/28 03:29:38;;;;;;;4.90;2.15;;;;;;;8.29;66.69;100637.25;5174692;28;20035;-73
2023/04/28 03:32:08;;;;;;;5.28;2.00;;;;;;;8.31;66.32;100630.25;5174143;28;20112;-77
2023/04/28 03:34:38;;;;;;;5.18;2.17;;;;;;;8.33;65.35;100630.19;5191350;22;20054;-70
2023/04/28 03:37:09;;;;;;;6.90;2.00;;;;;;;8.37;66.06;100624.06;5173396;28;20040;-73
2023/04/28 03:39:39;;;;;;;5.80;1.85;;;;;;;8.34;67.00;100627.56;5173547;28;20026;-73
2023/04/28 03:42:10;;;;;;;7.60;2.20;;;;;;;8.36;66.39;100620.56;5174036;28;20025;-71
2023/04/28 03:44:40;;;;;;;5.88;2.38;;;;;;;8.29;66.27;100615.56;5166118;28;20029;-72
2023/04/28 03:47:10;;;;;;;5.30;2.15;;;;;;;8.35;66.50;100611.06;5173958;28;20490;-71
2023/04/28 03:49:41;;;;;;;5.30;2.17;;;;;;;8.33;66.65;100604.16;5172960;28;20018;-70
2023/04/28 03:52:11;;;;;;;7.40;2.25;;;;;;;8.30;66.77;100610.34;5159261;28;20030;-71
2023/04/28 03:54:41;;;;;;;6.82;2.20;;;;;;;8.28;66.88;100606.91;5164733;28;20054;-70
2023/04/28 03:57:12;;;;;;;5.22;2.05;;;;;;;8.25;67.28;100600.94;5172635;28;20088;-69
2023/04/28 03:59:42;;;;;;;4.60;2.30;;;;;;;8.27;66.98;100600.00;5173705;28;20484;-71
2023/04/28 04:02:12;;;;;;;6.07;2.10;;;;;;;8.24;66.77;100602.66;5178416;28;20464;-70
2023/04/28 04:04:43;;;;;;;7.82;2.50;;;;;;;8.12;67.33;100595.16;5175157;28;20209;-71
2023/04/28 04:07:13;;;;;;;7.60;2.38;;;;;;;8.13;67.58;100594.25;5173766;28;20084;-70
2023/04/28 04:09:43;;;;;;;5.90;2.10;;;;;;;8.27;67.20;100597.41;5175605;28;20388;-71
2023/04/28 04:12:14;;;;;;;9.45;2.20;;;;;;;8.25;67.13;100593.13;5176147;28;20032;-72
2023/04/28 04:14:44;;;;;;;11.02;2.28;;;;;;;8.30;66.83;100594.72;5173109;28;20018;-72
2023/04/28 04:17:15;;;;;;;5.50;2.83;;;;;;;8.32;66.88;100598.13;5178303;28;20075;-72
2023/04/28 04:19:45;;;;;;;5.18;2.20;;;;;;;8.38;66.72;100603.16;5176574;28;20028;-70
2023/04/28 04:22:15;;;;;;;6.15;2.42;;;;;;;8.28;67.22;100591.28;5178188;28;20464;-70
2023/04/28 04:24:46;;;;;;;5.55;2.40;;;;;;;8.31;67.14;100603.34;5176515;28;20031;-72
2023/04/28 04:27:16;;;;;;;4.43;2.15;;;;;;;8.26;67.91;100587.88;5176106;28;20294;-71
2023/04/28 04:29:47;;;;;;;6.20;2.55;;;;;;;8.33;67.12;100594.63;5179234;28;20026;-71
2023/04/28 04:32:17;;;;;;;10.45;2.88;;;;;;;8.37;66.96;100591.03;5177666;28;20026;-71
2023/04/28 04:34:48;;;;;;;8.27;2.33;;;;;;;8.29;68.06;100587.78;5180738;28;20423;-70
2023/04/28 04:37:18;;;;;;;10.00;2.85;;;;;;;8.38;67.14;100586.69;5177750;28;20032;-69
2023/04/28 04:39:48;;;;;;;7.68;2.70;;;;;;;8.43;67.95;100579.59;5183055;28;20381;-69
2023/04/28 04:42:19;;;;;;;8.75;2.50;;;;;;;8.40;67.78;100583.13;5177206;28;20055;-70
2023/04/28 04:44:49;;;;;;;7.03;2.30;;;;;;;8.53;67.30;100586.28;5176037;28;20058;-70
2023/04/28 04:47:19;;;;;;;7.50;2.67;;;;;;;8.60;67.40;100588.69;5175041;28;20029;-70
2023/04/28 04:49:52;;;;;;;8.98;2.40;;;;;;;8.62;66.78;100584.28;5177635;28;20668;-72
2023/04/28 04:52:22;;;;;;;4.57;2.42;;;;;;;8.69;66.53;100584.97;5178758;28;20030;-71
2023/04/28 04:54:55;;;;;;;5.88;2.83;;;;;;;8.84;66.43;100590.59;5159728;28;20088;-72
2023/04/28 04:57:26;;;;;;;5.57;2.25;;;;;;;8.99;65.70;100578.88;5175720;28;20022;-71
2023/04/28 04:59:56;;;;;;;7.05;2.53;;;;;;;9.10;65.94;100579.44;5177211;28;20038;-72
2023/04/28 05:02:26;;;;;;;8.02;2.70;;;;;;;9.43;64.89;100581.84;5178319;28;20600;-72
2023/04/28 05:04:56;;;;;;;7.65;2.90;;;;;;;9.86;63.39;100577.00;5177691;28;20164;-71
2023/04/28 05:07:27;;;;;;;7.65;3.20;;;;;;;10.16;63.59;100562.97;5174159;28;20033;-72
2023/04/28 05:09:57;;;;;;;7.22;2.72;;;;;;;10.03;63.43;100562.50;5176138;28;20376;-70
2023/04/28 05:12:27;;;;;;;8.70;2.53;;;;;;;11.09;61.81;100549.94;5179374;28;20026;-72
2023/04/28 05:14:57;;;;;;;6.22;2.72;;;;;;;11.49;60.08;100548.34;5177497;28;20029;-72
2023/04/28 05:17:28;;;;;;;7.40;3.05;;;;;;;12.28;59.13;100553.81;5175583;28;20058;-71
2023/04/28 05:19:58;;;;;;;7.55;2.90;;;;;;;12.52;58.16;100548.34;5175888;28;20033;-72
2023/04/28 05:22:30;;;;;;;5.80;2.75;;;;;;;12.33;58.58;100547.41;5176641;28;20033;-72
2023/04/28 05:25:00;;;;;;;6.35;2.58;;;;;;;12.44;58.30;100547.81;5173966;28;20505;-71
2023/04/28 05:27:30;;;;;;;8.15;3.35;;;;;;;12.64;58.45;100547.78;5174904;28;20030;-72
2023/04/28 05:30:00;;;;;;;7.20;2.80;;;;;;;12.20;58.07;100555.88;5178647;28;20024;-71
2023/04/28 05:32:32;;;;;;;7.03;2.90;;;;;;;11.73;58.99;100543.91;5174906;28;20025;-71
2023/04/28 05:35:03;;;;;;;5.82;3.00;;;;;;;11.70;60.17;100550.13;5173590;28;20117;-70
2023/04/28 05:37:33;;;;;;;8.35;3.08;;;;;;;11.53;61.16;100546.44;5175446;28;20495;-71
2023/04/28 05:40:04;;;;;;;5.68;2.78;;;;;;;10.96;62.08;100558.28;5177709;28;20033;-69
2023/04/28 05:42:34;;;;;;;6.45;3.50;;;;;;;10.54;62.94;100544.19;5174995;28;20176;-70
2023/04/28 05:45:05;;;;;;;6.53;3.00;;;;;;;10.25;64.43;100553.06;5175057;28;20057;-69
2023/04/28 05:47:36;;;;;;;8.70;3.13;;;;;;;10.32;64.46;100549.31;5176616;28;20032;-71
2023/04/28 05:50:07;;;;;;;8.55;3.85;;;;;;;10.20;64.33;100559.34;5178332;28;20487;-72
2023/04/28 05:52:37;;;;;;;7.15;3.40;;;;;;;10.18;64.25;100555.94;5177319;28;20018;-73
2023/04/28 05:55:08;;;;;;;6.28;3.30;;;;;;;10.15;65.26;100553.44;5174244;28;20065;-71
2023/04/28 05:57:38;;;;;;;8.00;3.53;;;;;;;10.13;65.92;100556.06;5174762;28;20029;-70
2023/04/28 06:00:09;;;;;;;7.53;3.50;;;;;;;10.21;65.05;100553.22;5175773;28;20029;-71
2023/04/28 06:02:39;;;;;;;8.60;3.67;;;;;;;10.01;65.18;100548.66;5176265;28;20456;-72
2023/04/28 06:05:10;;;;;;;13.80;4.13;;;;;;;9.98;65.41;100537.44;5174899;28;20399;-72
2023/04/28 06:07:40;;;;;;;7.80;3.45;;;;;;;10.01;66.39;100534.72;5176181;28;20091;-72
2023/04/28 06:10:10;;;;;;;8.85;4.03;;;;;;;10.02;66.42;100541.69;5175781;28;20276;-72
2023/04/28 06:12:41;;;;;;;8.48;3.80;;;;;;;10.17;65.94;100538.56;5174610;28;20026;-71
2023/04/28 06:15:11;;;;;;;8.23;3.90;;;;;;;10.10;65.09;100545.75;5175892;28;20508;-71
2023/04/28 06:17:41;;;;;;;13.00;3.78;;;;;;;10.13;66.13;100536.97;5173106;28;21441;-72
2023/04/28 06:20:12;;;;;;;10.75;4.05;;;;;;;10.11;66.51;100531.78;5175502;28;20033;-72
2023/04/28 06:22:43;;;;;;;6.88;3.78;;;;;;;10.04;65.87;100526.81;5175894;28;20640;-72
2023/04/28 06:25:13;;;;;;;12.75;4.25;;;;;;;10.03;65.91;100528.56;5175397;28;20033;-72
2023/04/28 06:27:44;;;;;;;9.50;4.20;;;;;;;10.06;65.09;100532.84;5176788;28;20552;-73
2023/04/28 06:30:21;;;;;;;8.95;4.32;;;;;;;10.12;66.02;100530.88;5176642;28;20135;-71
2023/04/28 06:32:51;;;;;;;8.13;3.97;;;;;;;10.04;66.04;100526.81;5176350;28;20566;-72
2023/04/28 06:35:22;;;;;;;9.93;4.53;;;;;;;10.05;65.78;100518.06;5177475;28;20041;-72
2023/04/28 06:37:52;;;;;;;7.85;3.63;;;;;;;10.23;65.59;100517.44;5174709;28;20291;-72
2023/04/28 06:40:23;;;;;;;8.88;3.63;;;;;;;10.49;65.85;100513.00;5176905;28;20177;-72
2023/04/28 06:42:53;;;;;;;8.73;3.95;;;;;;;10.42;65.47;100508.03;5175380;28;20127;-70
2023/04/28 06:45:23;;;;;;;15.52;4.43;;;;;;;10.42;65.81;100508.03;5176352;28;20033;-72
2023/04/28 06:47:57;;;;;;;9.13;4.10;;;;;;;10.64;65.21;100503.72;5175990;28;20119;-72
2023/04/28 06:50:27;;;;;;;13.85;4.38;;;;;;;10.59;65.67;100500.44;5174811;28;20022;-72
2023/04/28 06:52:57;;;;;;;10.05;3.95;;;;;;;10.80;64.86;100497.88;5176108;28;20057;-72
2023/04/28 06:55:28;;;;;;;9.55;4.40;;;;;;;11.02;64.92;100500.56;5177373;28;20070;-71
2023/04/28 06:57:58;;;;;;;8.13;4.05;;;;;;;10.89;65.12;100494.91;5175424;28;20033;-71
2023/04/28 07:00:28;;;;;;;12.05;4.47;;;;;;;10.85;64.25;100482.88;5174665;28;20503;-71
2023/04/28 07:02:59;;;;;;;9.90;4.25;;;;;;;11.10;66.62;100489.72;5177149;28;20194;-72
2023/04/28 07:05:29;;;;;;;10.68;4.07;;;;;;;10.85;64.60;100498.56;5175724;28;20021;-72
2023/04/28 07:08:00;;;;;;;7.78;4.00;;;;;;;10.99;64.35;100487.59;5173270;28;20026;-71
2023/04/28 07:10:30;;;;;;;8.02;4.10;;;;;;;11.14;64.05;100487.84;5176598;28;20315;-70
2023/04/28 07:13:00;;;;;;;9.80;4.63;;;;;;;11.07;64.67;100482.00;5174317;28;20025;-70
2023/04/28 07:15:31;;;;;;;7.53;4.20;;;;;;;11.11;64.31;100485.34;5174074;28;20108;-70
2023/04/28 07:18:01;;;;;;;10.25;4.40;;;;;;;11.02;64.17;100486.56;5174894;28;20049;-72
2023/04/28 07:20:31;;;;;;;12.50;4.85;;;;;;;11.19;64.98;100486.75;5176193;28;20105;-71
2023/04/28 07:23:01;;;;;;;8.50;4.32;;;;;;;11.25;65.51;100478.66;5175951;28;20029;-71
2023/04/28 07:25:32;;;;;;;8.88;4.20;;;;;;;11.41;64.23;100479.75;5174430;28;20125;-72
2023/04/28 07:28:02;;;;;;;11.57;4.90;;;;;;;11.50;64.12;100479.38;5175467;28;20609;-71
2023/04/28 07:30:34;;;;;;;9.73;4.15;;;;;;;11.22;64.46;100489.25;5175954;28;20109;-69
2023/04/28 07:33:04;;;;;;;9.48;4.32;;;;;;;11.43;65.10;100466.59;5177464;28;20404;-70
2023/04/28 07:35:34;;;;;;;10.18;4.80;;;;;;;11.45;64.55;100467.41;5174792;28;20036;-70
2023/04/28 07:38:05;;;;;;;9.68;4.47;;;;;;;11.50;64.69;100473.28;5173808;28;20056;-71
2023/04/28 07:40:35;;;;;;;13.40;4.15;;;;;;;11.54;64.48;100469.63;5175338;28;20034;-71
2023/04/28 07:43:06;;;;;;;9.25;4.45;;;;;;;11.37;64.69;100472.94;5176411;28;20042;-72
2023/04/28 07:45:39;;;;;;;13.55;4.43;;;;;;;11.53;65.14;100473.16;5175147;28;20021;-71
2023/04/28 07:48:10;;;;;;;8.82;4.30;;;;;;;11.45;65.10;100472.63;5171497;28;20258;-72
2023/04/28 07:50:40;;;;;;;8.45;4.70;;;;;;;11.68;66.16;100468.19;5173914;28;20526;-73
2023/04/28 07:53:11;;;;;;;13.18;4.25;;;;;;;11.78;65.46;100459.00;5174418;28;20025;-73
2023/04/28 07:55:42;;;;;;;12.00;4.30;;;;;;;11.79;65.54;100468.56;5173829;28;20040;-72
2023/04/28 07:58:12;;;;;;;9.20;4.85;;;;;;;11.94;64.92;100457.44;5174889;28;20022;-72
2023/04/28 08:00:42;;;;;;;10.95;4.50;;;;;;;12.13;63.88;100458.34;5173582;28;20049;-71
2023/04/28 08:03:13;;;;;;;10.55;4.30;;;;;;;12.34;64.10;100460.06;5178309;28;20036;-72
2023/04/28 08:05:44;;;;;;;8.65;4.18;;;;;;;12.82;63.95;100449.91;5178622;28;20117;-70
2023/04/28 08:08:14;;;;;;;12.35;4.28;;;;;;;12.46;63.47;100459.47;5178455;28;20022;-71
2023/04/28 08:10:44;;;;;;;9.70;4.25;;;;;;;12.47;65.04;100463.81;5179318;28;20018;-71
2023/04/28 08:13:15;;;;;;;11.40;4.70;;;;;;;12.85;65.67;100462.06;5178255;28;20033;-72
2023/04/28 08:15:47;;;;;;;10.90;4.72;;;;;;;12.75;65.45;100456.38;5181381;28;20503;-73
2023/04/28 08:18:18;;;;;;;8.63;4.20;;;;;;;12.94;64.21;100459.88;5179361;28;20134;-73
2023/04/28 08:20:48;;;;;;;9.85;4.85;;;;;;;12.61;65.91;100464.03;5177313;28;20299;-69
2023/04/28 08:23:19;;;;;;;7.28;4.20;;;;;;;12.53;65.87;100458.31;5177729;28;20029;-71
2023/04/28 08:25:49;;;;;;;9.00;4.40;;;;;;;12.58;65.42;100458.06;5176514;28;20415;-71
2023/04/28 08:28:19;;;;;;;11.23;4.47;;;;;;;12.65;66.44;100459.50;5177686;28;20013;-71
2023/04/28 08:30:51;;;;;;;9.63;4.50;;;;;;;12.86;65.86;100469.00;5177292;28;20120;-71
2023/04/28 08:33:22;;;;;;;7.45;4.15;;;;;;;12.55;64.91;100468.69;5179166;28;20085;-72
2023/04/28 08:35:54;;;;;;;10.40;4.53;;;;;;;12.70;65.53;100461.00;5178203;28;20030;-72
2023/04/28 08:38:25;;;;;;;10.25;4.25;;;;;;;12.88;66.79;100462.78;5176527;28;20083;-72
2023/04/28 08:40:56;;;;;;;7.38;4.35;;;;;;;12.74;65.75;100465.19;5177190;28;20034;-71
2023/04/28 08:43:27;;;;;;;9.32;4.25;;;;;;;12.87;66.59;100461.06;5179089;28;20117;-72
2023/04/28 08:45:59;;;;;;;6.43;4.05;;;;;;;13.09;66.03;100454.75;5178253;28;20616;-72
2023/04/28 08:48:32;;;;;;;14.73;4.28;;;;;;;13.17;65.91;100452.63;5177614;28;20476;-71
2023/04/28 08:51:04;;;;;;;8.95;4.40;;;;;;;13.15;65.18;100456.22;5177325;28;20034;-71
2023/04/28 08:53:38;;;;;;;11.10;4.03;;;;;;;13.22;64.96;100453.25;5175622;28;20030;-69
2023/04/28 08:56:12;;;;;;;9.98;4.43;;;;;;;13.20;64.86;100455.09;5177514;28;20033;-71
2023/04/28 08:58:42;;;;;;;7.40;4.50;;;;;;;13.34;65.74;100446.53;5177677;28;20079;-72
2023/04/28 09:01:13;;;;;;;8.68;4.72;;;;;;;13.68;66.31;100436.94;5178781;28;20025;-71
2023/04/28 09:03:43;;;;;;;8.90;4.18;;;;;;;14.11;65.56;100440.84;5177121;28;20357;-72
2023/04/28 09:06:14;;;;;;;8.13;3.90;;;;;;;13.95;63.23;100443.41;5175293;28;20109;-72
2023/04/28 09:08:44;;;;;;;9.18;4.03;;;;;;;13.79;64.50;100426.75;5176409;28;20419;-72
2023/04/28 09:11:15;;;;;;;8.73;4.13;;;;;;;13.68;64.75;100436.94;5178959;28;20049;-72
2023/04/28 09:13:45;;;;;;;8.68;3.97;;;;;;;13.87;64.89;100429.81;5177922;28;20064;-72
2023/04/28 09:16:16;;;;;;;7.32;3.67;;;;;;;13.71;65.03;100433.31;5178014;28;20021;-72
2023/04/28 09:18:57;;;;;;;10.70;4.30;;;;;;;13.73;63.87;100428.84;5176730;28;20057;-72
2023/04/28 09:21:27;;;;;;;11.98;4.28;;;;;;;13.89;65.25;100419.25;5177115;28;20079;-72
2023/04/28 09:23:57;;;;;;;8.13;3.85;;;;;;;13.85;64.14;100415.91;5176697;28;20049;-70
2023/04/28 09:26:49;;;;;;;10.88;3.78;;;;;;;13.88;63.58;100417.56;5178667;28;20295;-73
2023/04/28 09:29:19;;;;;;;10.18;4.25;;;;;;;13.92;63.09;100411.19;5175287;28;20034;-72
2023/04/28 09:31:51;;;;;;;7.93;3.22;;;;;;;14.24;63.56;100407.78;5176242;28;20026;-73
2023/04/28 09:34:22;;;;;;;6.60;3.97;;;;;;;14.21;63.53;100408.78;5222485;23;20498;-71
2023/04/28 09:36:52;;;;;;;8.98;3.85;;;;;;;14.22;64.21;100396.50;5223446;28;20039;-74
2023/04/28 09:39:30;;;;;;;9.95;4.13;;;;;;;14.24;63.22;100397.25;5225048;28;20555;-74
2023/04/28 09:42:02;;;;;;;10.48;4.10;;;;;;;14.29;64.46;100397.84;5226049;28;20044;-72
2023/04/28 09:44:32;;;;;;;6.97;3.85;;;;;;;14.16;64.81;100391.53;5227481;28;20032;-73
2023/04/28 09:47:22;;;;;;;7.00;4.15;;;;;;;14.17;64.00;100386.22;5226030;28;20029;-73
2023/04/28 09:49:54;;;;;;;10.63;4.88;;;;;;;14.21;64.84;100381.63;5225190;28;20067;-74
2023/04/28 09:52:25;;;;;;;9.43;3.97;;;;;;;13.92;65.40;100392.81;5226734;28;20031;-73
2023/04/28 09:54:56;;;;;;;9.27;4.60;;;;;;;14.01;65.09;100384.44;5226880;28;20775;-74
2023/04/28 09:57:30;;;;;;;8.05;4.13;;;;;;;14.07;65.72;100381.50;5223208;28;20104;-73
2023/04/28 10:00:05;;;;;;;9.38;4.43;;;;;;;13.85;65.77;100380.91;5224818;28;20028;-74
2023/04/28 10:02:36;;;;;;;15.13;4.27;;;;;;;14.00;66.69;100382.72;5218287;28;20025;-73
2023/04/28 10:05:08;;;;;;;9.00;4.43;;;;;;;14.23;68.53;100371.91;5226350;28;20067;-72
2023/04/28 10:07:39;;;;;;;8.93;4.03;;;;;;;13.99;65.69;100370.53;5219145;28;20021;-73
2023/04/28 10:10:13;;;;;;;8.73;4.20;;;;;;;13.98;68.00;100371.47;5226635;28;20032;-74
2023/04/28 10:12:44;;;;;;;9.13;4.38;;;;;;;14.18;67.05;100360.78;5222041;28;20036;-74
2023/04/28 10:15:15;;;;;;;10.40;4.30;;;;;;;14.44;67.79;100365.47;5228018;28;20029;-73
2023/04/28 10:17:49;;;;;;;9.93;4.93;;;;;;;14.22;66.61;100365.78;5224612;28;20036;-73
2023/04/28 10:20:21;;;;;;;7.15;4.47;;;;;;;14.26;67.15;100362.06;5226146;28;20179;-72
2023/04/28 10:23:01;;;;;;;11.07;4.95;;;;;;;14.25;66.38;100370.03;5222743;28;20315;-72
2023/04/28 10:25:36;;;;;;;11.35;4.40;;;;;;;14.17;66.67;100356.44;5222320;28;20036;-71
2023/04/28 10:28:07;;;;;;;11.27;4.72;;;;;;;14.23;68.94;100361.41;5221156;28;20026;-72
2023/04/28 10:30:38;;;;;;;11.35;4.00;;;;;;;14.36;68.19;100355.38;5226296;28;20111;-72
2023/04/28 10:33:14;;;;;;;11.02;4.07;;;;;;;14.21;66.68;100357.97;5224286;28;20107;-73
2023/04/28 10:35:46;;;;;;;10.80;4.65;;;;;;;14.01;68.60;100351.13;5223571;28;20025;-73
2023/04/28 10:38:20;;;;;;;11.68;4.43;;;;;;;13.96;67.31;100352.31;5218127;28;20033;-72
2023/04/28 10:40:59;;;;;;;8.48;4.30;;;;;;;14.16;68.81;100341.59;5222655;28;20075;-72
2023/04/28 10:43:36;;;;;;;9.18;4.10;;;;;;;13.95;69.29;100350.59;5226531;28;20025;-73
2023/04/28 10:46:08;;;;;;;10.75;4.82;;;;;;;14.09;68.27;100345.47;5225900;28;20106;-72
2023/04/28 10:48:47;;;;;;;11.30;4.60;;;;;;;14.20;68.28;100335.25;5221032;28;20100;-71
2023/04/28 10:51:17;;;;;;;11.95;4.50;;;;;;;14.02;68.87;100336.19;5223845;28;20035;-73
2023/04/28 10:53:49;;;;;;;10.23;4.60;;;;;;;14.17;69.54;100338.91;5221840;28;20025;-71
2023/04/28 10:56:26;;;;;;;7.35;4.53;;;;;;;14.11;69.53;100333.09;5223827;28;20279;-73
2023/04/28 10:58:57;;;;;;;12.75;4.72;;;;;;;14.15;70.43;100332.84;5219031;28;20028;-74
2023/04/28 11:01:33;;;;;;;10.38;4.65;;;;;;;14.04;70.29;100334.34;5224787;28;20487;-73
2023/04/28 11:04:12;;;;;;;11.27;4.47;;;;;;;13.97;70.39;100328.59;5220015;28;20064;-72
2023/04/28 11:06:44;;;;;;;9.07;4.75;;;;;;;14.22;68.79;100333.41;5218971;28;20031;-73
2023/04/28 11:09:16;;;;;;;8.77;4.38;;;;;;;14.39;69.11;100328.09;5222972;28;20051;-73
2023/04/28 11:11:58;;;;;;;8.43;4.35;;;;;;;14.35;69.56;100323.91;5223313;28;20021;-73
2023/04/28 11:14:33;;;;;;;7.72;4.55;;;;;;;14.43;69.55;100326.97;5225102;28;20092;-73
2023/04/28 11:17:06;;;;;;;7.88;4.57;;;;;;;14.36;67.96;100328.22;5224682;28;20044;-73
2023/04/28 11:19:38;;;;;;;9.60;4.80;;;;;;;14.59;69.63;100328.66;5215336;28;20394;-72
2023/04/28 11:22:17;;;;;;;10.05;5.10;;;;;;;14.71;69.64;100325.34;5222500;28;20032;-73
2023/04/28 11:25:01;;;;;;;13.05;4.72;;;;;;;14.67;69.38;100329.09;5220682;28;20020;-73
2023/04/28 11:27:33;;;;;;;9.02;4.25;;;;;;;14.60;70.53;100325.09;5226256;28;20110;-73
2023/04/28 11:30:18;;;;;;;13.65;4.90;;;;;;;14.40;70.26;100322.72;5223187;28;20395;-73
2023/04/28 11:32:50;;;;;;;13.10;5.13;;;;;;;14.56;69.22;100322.75;5222602;28;20028;-74
2023/04/28 11:35:20;;;;;;;10.60;4.13;;;;;;;14.55;69.60;100316.63;5222625;28;20507;-72
2023/04/28 11:38:03;;;;;;;9.73;4.68;;;;;;;14.54;70.45;100316.69;5229344;28;20110;-73
2023/04/28 11:40:33;;;;;;;10.40;4.55;;;;;;;14.24;71.41;100316.59;5226886;28;20108;-73
2023/04/28 11:43:05;;;;;;;11.35;4.68;;;;;;;14.52;72.15;100310.66;5226810;28;20182;-73
2023/04/28 11:45:35;;;;;;;11.82;4.40;;;;;;;14.49;72.38;100310.84;5222506;28;20306;-72